sensor_id;sensor_type;location;lat;lon;timestamp;temperature;humidity
22779;DHT22;11556;51.194;3.800;2023-09-19T00:00:21;15.10;99.90
22779;DHT22;11556;51.194;3.800;2023-09-19T00:02:57;15.00;99.90
22779;DHT22;11556;51.194;3.800;2023-09-19T00:05:29;15.00;99.90
22779;DHT22;11556;51.194;3.800;2023-09-19T00:07:57;14.90;99.90
22779;DHT22;11556;51.194;3.800;2023-09-19T00:10:27;14.90;99.90
22779;DHT22;11556;51.194;3.800;2023-09-19T00:12:57;14.80;99.90
22779;DHT22;11556;51.194;3.800;2023-09-19T00:15:26;14.90;99.90
22779;DHT22;11556;51.194;3.800;2023-09-19T00:17:57;14.80;99.90
22779;DHT22;11556;51.194;3.800;2023-09-19T00:20:23;14.80;99.90
22779;DHT22;11556;51.194;3.800;2023-09-19T00:22:50;14.80;99.90
22779;DHT22;11556;51.194;3.800;2023-09-19T00:25:19;14.80;99.90
22779;DHT22;11556;51.194;3.800;2023-09-19T00:27:45;14.80;99.90
22779;DHT22;11556;51.194;3.800;2023-09-19T00:30:17;14.70;99.90
22779;DHT22;11556;51.194;3.800;2023-09-19T00:32:47;14.70;99.90
22779;DHT22;11556;51.194;3.800;2023-09-19T00:35:14;14.70;99.90
22779;DHT22;11556;51.194;3.800;2023-09-19T00:37:41;14.80;99.90
22779;DHT22;11556;51.194;3.800;2023-09-19T00:40:10;14.80;99.90
22779;DHT22;11556;51.194;3.800;2023-09-19T00:42:38;14.80;99.90
22779;DHT22;11556;51.194;3.800;2023-09-19T00:45:05;14.80;99.90
22779;DHT22;11556;51.194;3.800;2023-09-19T00:47:31;14.70;99.90
22779;DHT22;11556;51.194;3.800;2023-09-19T00:49:57;14.70;99.90
22779;DHT22;11556;51.194;3.800;2023-09-19T00:52:24;14.70;99.90
22779;DHT22;11556;51.194;3.800;2023-09-19T00:54:50;14.70;99.90
22779;DHT22;11556;51.194;3.800;2023-09-19T00:57:16;14.70;99.90
22779;DHT22;11556;51.194;3.800;2023-09-19T00:59:43;14.80;99.90
22779;DHT22;11556;51.194;3.800;2023-09-19T01:02:09;14.80;99.90
22779;DHT22;11556;51.194;3.800;2023-09-19T01:04:34;14.70;99.90
22779;DHT22;11556;51.194;3.800;2023-09-19T01:07:00;14.70;99.90
22779;DHT22;11556;51.194;3.800;2023-09-19T01:09:26;14.60;99.90
22779;DHT22;11556;51.194;3.800;2023-09-19T01:11:56;14.60;99.90
22779;DHT22;11556;51.194;3.800;2023-09-19T01:17:04;14.70;99.90
22779;DHT22;11556;51.194;3.800;2023-09-19T01:30:56;14.60;99.90
22779;DHT22;11556;51.194;3.800;2023-09-19T01:33:24;14.60;99.90
22779;DHT22;11556;51.194;3.800;2023-09-19T01:35:51;14.60;99.90
22779;DHT22;11556;51.194;3.800;2023-09-19T01:38:18;14.60;99.90
22779;DHT22;11556;51.194;3.800;2023-09-19T01:40:54;14.60;99.90
22779;DHT22;11556;51.194;3.800;2023-09-19T01:43:37;14.70;99.90
22779;DHT22;11556;51.194;3.800;2023-09-19T01:46:26;14.70;99.90
22779;DHT22;11556;51.194;3.800;2023-09-19T01:52:00;14.80;99.90
22779;DHT22;11556;51.194;3.800;2023-09-19T01:54:33;14.80;99.90
22779;DHT22;11556;51.194;3.800;2023-09-19T01:59:40;14.90;99.90
22779;DHT22;11556;51.194;3.800;2023-09-19T02:02:07;15.00;99.90
22779;DHT22;11556;51.194;3.800;2023-09-19T02:04:34;15.00;99.90
22779;DHT22;11556;51.194;3.800;2023-09-19T02:07:02;15.00;99.90
22779;DHT22;11556;51.194;3.800;2023-09-19T02:09:28;15.10;99.90
22779;DHT22;11556;51.194;3.800;2023-09-19T02:11:53;15.20;99.90
22779;DHT22;11556;51.194;3.800;2023-09-19T02:14:21;15.10;99.90
22779;DHT22;11556;51.194;3.800;2023-09-19T02:16:47;15.20;99.90
22779;DHT22;11556;51.194;3.800;2023-09-19T02:19:16;15.20;99.90
22779;DHT22;11556;51.194;3.800;2023-09-19T02:21:42;15.20;99.90
22779;DHT22;11556;51.194;3.800;2023-09-19T02:24:09;15.20;99.90
22779;DHT22;11556;51.194;3.800;2023-09-19T02:26:35;15.10;99.90
22779;DHT22;11556;51.194;3.800;2023-09-19T02:29:02;15.20;99.90
22779;DHT22;11556;51.194;3.800;2023-09-19T02:31:30;15.20;99.90
22779;DHT22;11556;51.194;3.800;2023-09-19T02:33:56;15.20;99.90
22779;DHT22;11556;51.194;3.800;2023-09-19T02:36:22;15.20;99.90
22779;DHT22;11556;51.194;3.800;2023-09-19T02:38:49;15.20;99.90
22779;DHT22;11556;51.194;3.800;2023-09-19T02:41:14;15.30;99.90
22779;DHT22;11556;51.194;3.800;2023-09-19T02:43:40;15.20;99.90
22779;DHT22;11556;51.194;3.800;2023-09-19T02:46:05;15.20;99.90
22779;DHT22;11556;51.194;3.800;2023-09-19T02:48:32;15.20;99.90
22779;DHT22;11556;51.194;3.800;2023-09-19T02:50:59;15.20;99.90
22779;DHT22;11556;51.194;3.800;2023-09-19T02:53:25;15.20;99.90
22779;DHT22;11556;51.194;3.800;2023-09-19T02:55:51;15.30;99.90
22779;DHT22;11556;51.194;3.800;2023-09-19T02:58:18;15.40;99.90
22779;DHT22;11556;51.194;3.800;2023-09-19T03:00:43;15.40;99.90
22779;DHT22;11556;51.194;3.800;2023-09-19T03:03:13;15.40;99.90
22779;DHT22;11556;51.194;3.800;2023-09-19T03:05:41;15.40;99.90
22779;DHT22;11556;51.194;3.800;2023-09-19T03:08:13;15.40;99.90
22779;DHT22;11556;51.194;3.800;2023-09-19T03:10:40;15.40;99.90
22779;DHT22;11556;51.194;3.800;2023-09-19T03:13:06;15.50;99.90
22779;DHT22;11556;51.194;3.800;2023-09-19T03:15:35;15.60;99.90
22779;DHT22;11556;51.194;3.800;2023-09-19T03:18:04;15.50;99.90
22779;DHT22;11556;51.194;3.800;2023-09-19T03:20:30;15.50;99.90
22779;DHT22;11556;51.194;3.800;2023-09-19T03:22:56;15.40;99.90
22779;DHT22;11556;51.194;3.800;2023-09-19T03:25:22;15.50;99.90
22779;DHT22;11556;51.194;3.800;2023-09-19T03:27:48;15.40;99.90
22779;DHT22;11556;51.194;3.800;2023-09-19T03:30:14;15.40;99.90
22779;DHT22;11556;51.194;3.800;2023-09-19T03:32:47;15.50;99.90
22779;DHT22;11556;51.194;3.800;2023-09-19T03:35:16;15.40;99.90
22779;DHT22;11556;51.194;3.800;2023-09-19T03:37:42;15.40;99.90
22779;DHT22;11556;51.194;3.800;2023-09-19T03:40:09;15.40;99.90
22779;DHT22;11556;51.194;3.800;2023-09-19T03:42:38;15.40;99.90
22779;DHT22;11556;51.194;3.800;2023-09-19T03:45:05;15.40;99.90
22779;DHT22;11556;51.194;3.800;2023-09-19T03:47:32;15.30;99.90
22779;DHT22;11556;51.194;3.800;2023-09-19T03:49:58;15.40;99.90
22779;DHT22;11556;51.194;3.800;2023-09-19T03:52:24;15.30;99.90
22779;DHT22;11556;51.194;3.800;2023-09-19T03:54:50;15.40;99.90
22779;DHT22;11556;51.194;3.800;2023-09-19T03:57:16;15.40;99.90
22779;DHT22;11556;51.194;3.800;2023-09-19T03:59:46;15.40;99.90
22779;DHT22;11556;51.194;3.800;2023-09-19T04:02:11;15.50;99.90
22779;DHT22;11556;51.194;3.800;2023-09-19T04:04:48;15.40;99.90
22779;DHT22;11556;51.194;3.800;2023-09-19T04:07:14;15.30;99.90
22779;DHT22;11556;51.194;3.800;2023-09-19T04:09:39;15.20;99.90
22779;DHT22;11556;51.194;3.800;2023-09-19T04:12:05;15.20;99.90
22779;DHT22;11556;51.194;3.800;2023-09-19T04:14:31;15.10;99.90
22779;DHT22;11556;51.194;3.800;2023-09-19T04:16:56;15.10;99.90
22779;DHT22;11556;51.194;3.800;2023-09-19T04:19:22;15.10;99.90
22779;DHT22;11556;51.194;3.800;2023-09-19T04:21:47;15.10;99.90
22779;DHT22;11556;51.194;3.800;2023-09-19T04:24:13;15.00;99.90
22779;DHT22;11556;51.194;3.800;2023-09-19T04:26:39;15.00;99.90
22779;DHT22;11556;51.194;3.800;2023-09-19T04:29:05;15.00;99.90
22779;DHT22;11556;51.194;3.800;2023-09-19T04:31:31;15.00;99.90
22779;DHT22;11556;51.194;3.800;2023-09-19T04:33:57;15.00;99.90
22779;DHT22;11556;51.194;3.800;2023-09-19T04:36:24;14.90;99.90
22779;DHT22;11556;51.194;3.800;2023-09-19T04:38:50;15.00;99.90
22779;DHT22;11556;51.194;3.800;2023-09-19T04:41:15;15.00;99.90
22779;DHT22;11556;51.194;3.800;2023-09-19T04:43:41;14.90;99.90
22779;DHT22;11556;51.194;3.800;2023-09-19T04:46:07;14.90;99.90
22779;DHT22;11556;51.194;3.800;2023-09-19T04:48:32;14.90;99.90
22779;DHT22;11556;51.194;3.800;2023-09-19T04:51:00;14.90;99.90
22779;DHT22;11556;51.194;3.800;2023-09-19T04:53:25;14.90;99.90
22779;DHT22;11556;51.194;3.800;2023-09-19T04:55:53;14.90;99.90
22779;DHT22;11556;51.194;3.800;2023-09-19T04:58:21;14.80;99.90
22779;DHT22;11556;51.194;3.800;2023-09-19T05:00:46;14.80;99.90
22779;DHT22;11556;51.194;3.800;2023-09-19T05:03:12;14.90;99.90
22779;DHT22;11556;51.194;3.800;2023-09-19T05:05:38;14.90;99.90
22779;DHT22;11556;51.194;3.800;2023-09-19T05:08:04;14.90;99.90
22779;DHT22;11556;51.194;3.800;2023-09-19T05:10:32;14.90;99.90
22779;DHT22;11556;51.194;3.800;2023-09-19T05:12:57;15.00;99.90
22779;DHT22;11556;51.194;3.800;2023-09-19T05:15:23;15.00;99.90
22779;DHT22;11556;51.194;3.800;2023-09-19T05:17:50;15.00;99.90
22779;DHT22;11556;51.194;3.800;2023-09-19T05:20:16;15.00;99.90
22779;DHT22;11556;51.194;3.800;2023-09-19T05:22:44;15.10;99.90
22779;DHT22;11556;51.194;3.800;2023-09-19T05:25:11;15.00;99.90
22779;DHT22;11556;51.194;3.800;2023-09-19T05:27:42;15.00;99.90
22779;DHT22;11556;51.194;3.800;2023-09-19T05:30:08;15.10;99.90
22779;DHT22;11556;51.194;3.800;2023-09-19T05:32:34;15.10;99.90
22779;DHT22;11556;51.194;3.800;2023-09-19T05:35:00;15.20;99.90
22779;DHT22;11556;51.194;3.800;2023-09-19T05:37:25;15.20;99.90
22779;DHT22;11556;51.194;3.800;2023-09-19T05:39:51;15.30;99.90
22779;DHT22;11556;51.194;3.800;2023-09-19T05:42:19;15.30;99.90
22779;DHT22;11556;51.194;3.800;2023-09-19T05:44:44;15.40;99.90
22779;DHT22;11556;51.194;3.800;2023-09-19T05:47:10;15.40;99.90
22779;DHT22;11556;51.194;3.800;2023-09-19T05:49:36;15.40;99.90
22779;DHT22;11556;51.194;3.800;2023-09-19T05:52:05;15.40;99.90
22779;DHT22;11556;51.194;3.800;2023-09-19T05:54:31;15.50;99.90
22779;DHT22;11556;51.194;3.800;2023-09-19T05:56:58;15.40;99.90
22779;DHT22;11556;51.194;3.800;2023-09-19T05:59:24;15.40;99.90
22779;DHT22;11556;51.194;3.800;2023-09-19T06:01:49;15.50;99.90
22779;DHT22;11556;51.194;3.800;2023-09-19T06:04:15;15.50;99.90
22779;DHT22;11556;51.194;3.800;2023-09-19T06:06:41;15.40;99.90
22779;DHT22;11556;51.194;3.800;2023-09-19T06:09:07;15.50;99.90
22779;DHT22;11556;51.194;3.800;2023-09-19T06:11:35;15.50;99.90
22779;DHT22;11556;51.194;3.800;2023-09-19T06:14:04;15.50;99.90
22779;DHT22;11556;51.194;3.800;2023-09-19T06:16:30;15.50;99.90
22779;DHT22;11556;51.194;3.800;2023-09-19T06:18:57;15.60;99.90
22779;DHT22;11556;51.194;3.800;2023-09-19T06:21:25;15.70;99.90
22779;DHT22;11556;51.194;3.800;2023-09-19T06:23:52;15.70;99.90
22779;DHT22;11556;51.194;3.800;2023-09-19T06:26:18;15.70;99.90
22779;DHT22;11556;51.194;3.800;2023-09-19T06:28:44;15.80;99.90
22779;DHT22;11556;51.194;3.800;2023-09-19T06:31:10;15.80;99.90
22779;DHT22;11556;51.194;3.800;2023-09-19T06:33:39;15.90;99.90
22779;DHT22;11556;51.194;3.800;2023-09-19T06:36:06;15.90;99.90
22779;DHT22;11556;51.194;3.800;2023-09-19T06:38:31;15.90;99.90
22779;DHT22;11556;51.194;3.800;2023-09-19T06:40:59;15.80;99.90
22779;DHT22;11556;51.194;3.800;2023-09-19T06:43:26;15.80;99.90
22779;DHT22;11556;51.194;3.800;2023-09-19T06:45:53;15.90;99.90
22779;DHT22;11556;51.194;3.800;2023-09-19T06:48:20;16.00;99.90
22779;DHT22;11556;51.194;3.800;2023-09-19T06:50:46;16.20;99.90
22779;DHT22;11556;51.194;3.800;2023-09-19T06:53:13;16.20;99.90
22779;DHT22;11556;51.194;3.800;2023-09-19T06:55:39;16.40;99.90
22779;DHT22;11556;51.194;3.800;2023-09-19T06:58:05;16.40;99.90
22779;DHT22;11556;51.194;3.800;2023-09-19T07:00:31;16.50;99.90
22779;DHT22;11556;51.194;3.800;2023-09-19T07:03:03;16.70;99.90
22779;DHT22;11556;51.194;3.800;2023-09-19T07:05:32;17.00;99.90
22779;DHT22;11556;51.194;3.800;2023-09-19T07:07:59;17.30;99.90
22779;DHT22;11556;51.194;3.800;2023-09-19T07:10:25;17.40;99.90
22779;DHT22;11556;51.194;3.800;2023-09-19T07:13:02;17.70;99.90
22779;DHT22;11556;51.194;3.800;2023-09-19T07:15:29;17.80;99.90
22779;DHT22;11556;51.194;3.800;2023-09-19T07:18:05;17.80;99.90
22779;DHT22;11556;51.194;3.800;2023-09-19T07:20:31;17.90;99.90
22779;DHT22;11556;51.194;3.800;2023-09-19T07:22:58;18.00;99.90
22779;DHT22;11556;51.194;3.800;2023-09-19T07:25:28;18.00;99.90
22779;DHT22;11556;51.194;3.800;2023-09-19T07:27:58;17.90;99.90
22779;DHT22;11556;51.194;3.800;2023-09-19T07:30:26;17.80;99.90
22779;DHT22;11556;51.194;3.800;2023-09-19T07:32:52;17.60;99.90
22779;DHT22;11556;51.194;3.800;2023-09-19T07:35:18;17.80;99.90
22779;DHT22;11556;51.194;3.800;2023-09-19T07:37:47;18.10;99.90
22779;DHT22;11556;51.194;3.800;2023-09-19T07:40:17;18.50;99.90
22779;DHT22;11556;51.194;3.800;2023-09-19T07:42:43;18.80;99.90
22779;DHT22;11556;51.194;3.800;2023-09-19T07:45:10;19.20;99.90
22779;DHT22;11556;51.194;3.800;2023-09-19T07:47:43;19.20;99.90
22779;DHT22;11556;51.194;3.800;2023-09-19T07:50:09;19.40;99.90
22779;DHT22;11556;51.194;3.800;2023-09-19T07:52:35;19.50;99.90
22779;DHT22;11556;51.194;3.800;2023-09-19T07:55:01;19.40;99.90
22779;DHT22;11556;51.194;3.800;2023-09-19T07:57:31;19.60;99.90
22779;DHT22;11556;51.194;3.800;2023-09-19T07:59:59;19.90;99.90
22779;DHT22;11556;51.194;3.800;2023-09-19T08:02:25;19.90;99.90
22779;DHT22;11556;51.194;3.800;2023-09-19T08:04:51;20.10;99.90
22779;DHT22;11556;51.194;3.800;2023-09-19T08:07:17;20.10;99.90
22779;DHT22;11556;51.194;3.800;2023-09-19T08:09:43;20.20;99.90
22779;DHT22;11556;51.194;3.800;2023-09-19T08:12:14;20.20;99.90
22779;DHT22;11556;51.194;3.800;2023-09-19T08:14:40;20.30;99.90
22779;DHT22;11556;51.194;3.800;2023-09-19T08:17:07;20.20;99.90
22779;DHT22;11556;51.194;3.800;2023-09-19T08:19:34;20.10;99.90
22779;DHT22;11556;51.194;3.800;2023-09-19T08:21:59;19.90;99.90
22779;DHT22;11556;51.194;3.800;2023-09-19T08:24:29;20.00;99.90
22779;DHT22;11556;51.194;3.800;2023-09-19T08:26:55;19.90;99.90
22779;DHT22;11556;51.194;3.800;2023-09-19T08:29:22;19.80;99.90
22779;DHT22;11556;51.194;3.800;2023-09-19T08:31:54;19.70;99.90
22779;DHT22;11556;51.194;3.800;2023-09-19T08:34:19;20.00;99.90
22779;DHT22;11556;51.194;3.800;2023-09-19T08:36:46;20.10;99.90
22779;DHT22;11556;51.194;3.800;2023-09-19T08:39:13;20.10;99.90
22779;DHT22;11556;51.194;3.800;2023-09-19T08:41:39;20.00;99.90
22779;DHT22;11556;51.194;3.800;2023-09-19T08:44:05;20.00;99.90
22779;DHT22;11556;51.194;3.800;2023-09-19T08:46:34;19.80;99.90
22779;DHT22;11556;51.194;3.800;2023-09-19T08:49:05;19.60;99.90
22779;DHT22;11556;51.194;3.800;2023-09-19T08:51:42;19.50;99.90
22779;DHT22;11556;51.194;3.800;2023-09-19T08:54:22;19.60;99.90
22779;DHT22;11556;51.194;3.800;2023-09-19T08:56:53;19.70;99.90
22779;DHT22;11556;51.194;3.800;2023-09-19T08:59:22;19.80;99.90
22779;DHT22;11556;51.194;3.800;2023-09-19T09:01:51;20.10;99.90
22779;DHT22;11556;51.194;3.800;2023-09-19T09:04:19;20.10;99.90
22779;DHT22;11556;51.194;3.800;2023-09-19T09:06:46;20.60;99.90
22779;DHT22;11556;51.194;3.800;2023-09-19T09:09:15;20.90;99.90
22779;DHT22;11556;51.194;3.800;2023-09-19T09:11:40;20.60;99.90
22779;DHT22;11556;51.194;3.800;2023-09-19T09:14:07;20.40;99.90
22779;DHT22;11556;51.194;3.800;2023-09-19T09:16:35;20.40;99.90
22779;DHT22;11556;51.194;3.800;2023-09-19T09:19:01;20.40;99.90
22779;DHT22;11556;51.194;3.800;2023-09-19T09:21:27;20.50;99.90
22779;DHT22;11556;51.194;3.800;2023-09-19T09:23:54;20.90;99.90
22779;DHT22;11556;51.194;3.800;2023-09-19T09:26:43;21.40;99.90
22779;DHT22;11556;51.194;3.800;2023-09-19T09:29:08;21.70;99.90
22779;DHT22;11556;51.194;3.800;2023-09-19T09:31:34;21.80;99.90
22779;DHT22;11556;51.194;3.800;2023-09-19T09:34:00;21.60;99.90
22779;DHT22;11556;51.194;3.800;2023-09-19T09:36:39;22.00;99.90
22779;DHT22;11556;51.194;3.800;2023-09-19T09:39:06;21.80;99.90
22779;DHT22;11556;51.194;3.800;2023-09-19T09:41:43;21.90;99.90
22779;DHT22;11556;51.194;3.800;2023-09-19T09:44:17;22.20;99.90
22779;DHT22;11556;51.194;3.800;2023-09-19T09:46:44;22.70;99.90
22779;DHT22;11556;51.194;3.800;2023-09-19T09:49:26;23.40;99.90
22779;DHT22;11556;51.194;3.800;2023-09-19T09:52:03;23.80;99.90
22779;DHT22;11556;51.194;3.800;2023-09-19T09:54:34;23.80;99.90
22779;DHT22;11556;51.194;3.800;2023-09-19T09:57:12;24.10;99.90
22779;DHT22;11556;51.194;3.800;2023-09-19T09:59:47;23.80;99.90
22779;DHT22;11556;51.194;3.800;2023-09-19T10:02:35;23.90;99.90
22779;DHT22;11556;51.194;3.800;2023-09-19T10:05:34;24.20;99.90
22779;DHT22;11556;51.194;3.800;2023-09-19T10:08:12;24.20;99.90
22779;DHT22;11556;51.194;3.800;2023-09-19T10:10:39;24.00;99.90
22779;DHT22;11556;51.194;3.800;2023-09-19T10:13:11;23.50;99.90
22779;DHT22;11556;51.194;3.800;2023-09-19T10:15:39;24.00;99.90
22779;DHT22;11556;51.194;3.800;2023-09-19T10:18:10;24.30;99.90
22779;DHT22;11556;51.194;3.800;2023-09-19T10:20:45;24.60;99.90
22779;DHT22;11556;51.194;3.800;2023-09-19T10:23:12;24.40;99.90
22779;DHT22;11556;51.194;3.800;2023-09-19T10:25:43;23.80;99.90
22779;DHT22;11556;51.194;3.800;2023-09-19T10:28:12;23.40;99.90
22779;DHT22;11556;51.194;3.800;2023-09-19T10:30:44;23.40;99.90
22779;DHT22;11556;51.194;3.800;2023-09-19T10:33:15;23.60;99.90
22779;DHT22;11556;51.194;3.800;2023-09-19T10:35:45;23.90;99.90
22779;DHT22;11556;51.194;3.800;2023-09-19T10:38:13;24.00;99.90
22779;DHT22;11556;51.194;3.800;2023-09-19T10:40:40;24.40;99.90
22779;DHT22;11556;51.194;3.800;2023-09-19T10:43:20;24.80;99.90
22779;DHT22;11556;51.194;3.800;2023-09-19T10:45:48;25.20;99.90
22779;DHT22;11556;51.194;3.800;2023-09-19T10:48:19;25.00;99.90
22779;DHT22;11556;51.194;3.800;2023-09-19T10:53:20;25.30;99.90
22779;DHT22;11556;51.194;3.800;2023-09-19T10:55:56;25.30;99.90
22779;DHT22;11556;51.194;3.800;2023-09-19T10:58:26;25.20;99.90
22779;DHT22;11556;51.194;3.800;2023-09-19T11:00:55;25.30;99.90
22779;DHT22;11556;51.194;3.800;2023-09-19T11:03:23;25.10;99.90
22779;DHT22;11556;51.194;3.800;2023-09-19T11:06:04;24.90;99.90
22779;DHT22;11556;51.194;3.800;2023-09-19T11:30:52;23.00;99.90
22779;DHT22;11556;51.194;3.800;2023-09-19T11:36:14;23.10;99.90
22779;DHT22;11556;51.194;3.800;2023-09-19T11:43:52;22.80;99.90
22779;DHT22;11556;51.194;3.800;2023-09-19T11:46:21;23.00;99.90
22779;DHT22;11556;51.194;3.800;2023-09-19T11:48:51;23.40;99.90
22779;DHT22;11556;51.194;3.800;2023-09-19T11:51:24;23.20;99.90
22779;DHT22;11556;51.194;3.800;2023-09-19T11:53:54;23.40;99.90
22779;DHT22;11556;51.194;3.800;2023-09-19T11:56:22;23.80;99.90
22779;DHT22;11556;51.194;3.800;2023-09-19T11:58:50;23.80;99.90
22779;DHT22;11556;51.194;3.800;2023-09-19T12:01:26;24.00;99.90
22779;DHT22;11556;51.194;3.800;2023-09-19T12:03:56;23.80;99.90
22779;DHT22;11556;51.194;3.800;2023-09-19T12:06:24;23.20;99.90
22779;DHT22;11556;51.194;3.800;2023-09-19T12:08:50;22.90;99.90
22779;DHT22;11556;51.194;3.800;2023-09-19T12:11:16;22.50;99.90
22779;DHT22;11556;51.194;3.800;2023-09-19T12:13:47;22.30;99.90
22779;DHT22;11556;51.194;3.800;2023-09-19T12:16:18;22.20;99.90
22779;DHT22;11556;51.194;3.800;2023-09-19T12:18:48;22.10;99.90
22779;DHT22;11556;51.194;3.800;2023-09-19T12:21:41;22.00;99.90
22779;DHT22;11556;51.194;3.800;2023-09-19T12:24:13;22.00;99.90
22779;DHT22;11556;51.194;3.800;2023-09-19T12:26:40;22.00;99.90
22779;DHT22;11556;51.194;3.800;2023-09-19T12:29:16;22.10;99.90
22779;DHT22;11556;51.194;3.800;2023-09-19T12:34:26;22.30;99.90
22779;DHT22;11556;51.194;3.800;2023-09-19T12:39:38;22.70;99.90
22779;DHT22;11556;51.194;3.800;2023-09-19T12:42:04;23.00;99.90
22779;DHT22;11556;51.194;3.800;2023-09-19T12:44:35;23.30;99.90
22779;DHT22;11556;51.194;3.800;2023-09-19T12:47:09;23.30;99.90
22779;DHT22;11556;51.194;3.800;2023-09-19T12:49:35;23.00;99.90
22779;DHT22;11556;51.194;3.800;2023-09-19T12:52:00;22.60;99.90
22779;DHT22;11556;51.194;3.800;2023-09-19T12:54:38;22.40;99.90
22779;DHT22;11556;51.194;3.800;2023-09-19T12:57:04;22.20;99.90
22779;DHT22;11556;51.194;3.800;2023-09-19T12:59:30;22.10;99.90
22779;DHT22;11556;51.194;3.800;2023-09-19T13:02:04;22.30;99.90
22779;DHT22;11556;51.194;3.800;2023-09-19T13:04:32;22.40;99.90
22779;DHT22;11556;51.194;3.800;2023-09-19T13:07:00;22.40;99.90
22779;DHT22;11556;51.194;3.800;2023-09-19T13:09:30;22.30;99.90
22779;DHT22;11556;51.194;3.800;2023-09-19T13:12:04;22.40;99.90
22779;DHT22;11556;51.194;3.800;2023-09-19T13:14:32;22.40;99.90
22779;DHT22;11556;51.194;3.800;2023-09-19T13:17:04;22.50;99.90
22779;DHT22;11556;51.194;3.800;2023-09-19T13:19:42;22.50;99.90
22779;DHT22;11556;51.194;3.800;2023-09-19T13:22:36;22.70;99.90
22779;DHT22;11556;51.194;3.800;2023-09-19T13:25:02;23.10;99.90
22779;DHT22;11556;51.194;3.800;2023-09-19T13:27:29;23.10;99.90
22779;DHT22;11556;51.194;3.800;2023-09-19T13:29:55;22.70;99.90
22779;DHT22;11556;51.194;3.800;2023-09-19T13:32:20;22.50;99.90
22779;DHT22;11556;51.194;3.800;2023-09-19T13:34:46;22.50;99.90
22779;DHT22;11556;51.194;3.800;2023-09-19T13:37:11;22.40;99.90
22779;DHT22;11556;51.194;3.800;2023-09-19T13:39:38;22.20;99.90
22779;DHT22;11556;51.194;3.800;2023-09-19T13:42:08;22.10;99.90
22779;DHT22;11556;51.194;3.800;2023-09-19T13:44:35;22.10;99.90
22779;DHT22;11556;51.194;3.800;2023-09-19T13:47:01;21.70;99.90
22779;DHT22;11556;51.194;3.800;2023-09-19T13:49:27;21.50;99.90
22779;DHT22;11556;51.194;3.800;2023-09-19T13:51:54;21.40;99.90
22779;DHT22;11556;51.194;3.800;2023-09-19T13:54:20;21.30;99.90
22779;DHT22;11556;51.194;3.800;2023-09-19T13:56:46;21.40;99.90
22779;DHT22;11556;51.194;3.800;2023-09-19T13:59:11;21.30;99.90
22779;DHT22;11556;51.194;3.800;2023-09-19T14:01:37;21.30;99.90
22779;DHT22;11556;51.194;3.800;2023-09-19T14:04:03;21.40;99.90
22779;DHT22;11556;51.194;3.800;2023-09-19T14:06:29;21.70;99.90
22779;DHT22;11556;51.194;3.800;2023-09-19T14:08:54;21.80;99.90
22779;DHT22;11556;51.194;3.800;2023-09-19T14:11:20;21.70;99.90
22779;DHT22;11556;51.194;3.800;2023-09-19T14:13:46;21.60;99.90
22779;DHT22;11556;51.194;3.800;2023-09-19T14:16:15;21.50;99.90
22779;DHT22;11556;51.194;3.800;2023-09-19T14:18:41;21.40;99.90
22779;DHT22;11556;51.194;3.800;2023-09-19T14:21:07;21.30;99.90
22779;DHT22;11556;51.194;3.800;2023-09-19T14:23:37;21.30;99.90
22779;DHT22;11556;51.194;3.800;2023-09-19T14:26:03;21.20;99.90
22779;DHT22;11556;51.194;3.800;2023-09-19T14:28:30;21.20;99.90
22779;DHT22;11556;51.194;3.800;2023-09-19T14:30:56;21.20;99.90
22779;DHT22;11556;51.194;3.800;2023-09-19T14:33:22;21.10;99.90
22779;DHT22;11556;51.194;3.800;2023-09-19T14:35:47;21.10;99.90
22779;DHT22;11556;51.194;3.800;2023-09-19T14:38:14;21.10;99.90
22779;DHT22;11556;51.194;3.800;2023-09-19T14:40:39;21.10;99.90
22779;DHT22;11556;51.194;3.800;2023-09-19T14:43:05;21.30;99.90
22779;DHT22;11556;51.194;3.800;2023-09-19T14:45:35;21.30;99.90
22779;DHT22;11556;51.194;3.800;2023-09-19T14:48:01;21.30;99.90
22779;DHT22;11556;51.194;3.800;2023-09-19T14:50:31;21.20;99.90
22779;DHT22;11556;51.194;3.800;2023-09-19T14:52:56;21.20;99.90
22779;DHT22;11556;51.194;3.800;2023-09-19T14:55:23;21.10;99.90
22779;DHT22;11556;51.194;3.800;2023-09-19T14:57:50;21.20;99.90
22779;DHT22;11556;51.194;3.800;2023-09-19T15:00:17;21.00;99.90
22779;DHT22;11556;51.194;3.800;2023-09-19T15:02:45;20.80;99.90
22779;DHT22;11556;51.194;3.800;2023-09-19T15:05:13;20.70;99.90
22779;DHT22;11556;51.194;3.800;2023-09-19T15:07:41;20.80;99.90
22779;DHT22;11556;51.194;3.800;2023-09-19T15:10:07;20.80;99.90
22779;DHT22;11556;51.194;3.800;2023-09-19T15:12:37;20.80;99.90
22779;DHT22;11556;51.194;3.800;2023-09-19T15:15:04;20.80;99.90
22779;DHT22;11556;51.194;3.800;2023-09-19T15:17:33;20.70;99.90
22779;DHT22;11556;51.194;3.800;2023-09-19T15:19:59;20.70;99.90
22779;DHT22;11556;51.194;3.800;2023-09-19T15:22:25;20.70;99.90
22779;DHT22;11556;51.194;3.800;2023-09-19T15:24:52;20.70;99.90
22779;DHT22;11556;51.194;3.800;2023-09-19T15:27:17;20.60;99.90
22779;DHT22;11556;51.194;3.800;2023-09-19T15:29:45;20.60;99.90
22779;DHT22;11556;51.194;3.800;2023-09-19T15:32:11;20.50;99.90
22779;DHT22;11556;51.194;3.800;2023-09-19T15:34:37;20.40;99.90
22779;DHT22;11556;51.194;3.800;2023-09-19T15:37:02;20.40;99.90
22779;DHT22;11556;51.194;3.800;2023-09-19T15:39:31;20.50;99.90
22779;DHT22;11556;51.194;3.800;2023-09-19T15:41:59;20.40;99.90
22779;DHT22;11556;51.194;3.800;2023-09-19T15:44:25;20.40;99.90
22779;DHT22;11556;51.194;3.800;2023-09-19T15:46:52;20.30;99.90
22779;DHT22;11556;51.194;3.800;2023-09-19T15:49:18;20.30;99.90
22779;DHT22;11556;51.194;3.800;2023-09-19T15:51:43;20.40;99.90
22779;DHT22;11556;51.194;3.800;2023-09-19T15:54:14;20.40;99.90
22779;DHT22;11556;51.194;3.800;2023-09-19T15:56:41;20.30;99.90
22779;DHT22;11556;51.194;3.800;2023-09-19T15:59:07;20.30;99.90
22779;DHT22;11556;51.194;3.800;2023-09-19T16:01:34;20.20;99.90
22779;DHT22;11556;51.194;3.800;2023-09-19T16:03:59;20.10;99.90
22779;DHT22;11556;51.194;3.800;2023-09-19T16:06:28;20.10;99.90
22779;DHT22;11556;51.194;3.800;2023-09-19T16:08:57;20.10;99.90
22779;DHT22;11556;51.194;3.800;2023-09-19T16:11:24;20.00;99.90
22779;DHT22;11556;51.194;3.800;2023-09-19T16:13:50;20.10;99.90
22779;DHT22;11556;51.194;3.800;2023-09-19T16:16:18;20.10;99.90
22779;DHT22;11556;51.194;3.800;2023-09-19T16:18:46;20.10;99.90
22779;DHT22;11556;51.194;3.800;2023-09-19T16:21:13;20.00;99.90
22779;DHT22;11556;51.194;3.800;2023-09-19T16:23:39;19.90;99.90
22779;DHT22;11556;51.194;3.800;2023-09-19T16:26:07;19.80;99.90
22779;DHT22;11556;51.194;3.800;2023-09-19T16:28:35;19.80;99.90
22779;DHT22;11556;51.194;3.800;2023-09-19T16:31:05;19.70;99.90
22779;DHT22;11556;51.194;3.800;2023-09-19T16:33:33;19.70;99.90